createdAt,value
2019-05-12T00:00:42.275Z,20.82
2019-05-12T00:03:13.191Z,20.85
2019-05-12T00:05:44.151Z,21.25
2019-05-12T00:08:15.762Z,21.20
2019-05-12T00:10:47.817Z,20.70
2019-05-12T00:13:19.191Z,20.70
2019-05-12T00:15:50.266Z,19.62
2019-05-12T00:18:21.229Z,20.68
2019-05-12T00:20:52.271Z,18.95
2019-05-12T00:23:27.722Z,21.20
2019-05-12T00:25:58.207Z,19.40
2019-05-12T00:28:30.496Z,19.25
2019-05-12T00:31:01.113Z,19.52
2019-05-12T00:33:32.121Z,19.73
2019-05-12T00:36:07.898Z,20.10
2019-05-12T00:38:38.239Z,19.87
2019-05-12T00:41:09.442Z,19.80
2019-05-12T00:43:40.566Z,19.82
2019-05-12T00:46:12.186Z,19.00
2019-05-12T00:48:43.447Z,19.52
2019-05-12T00:51:14.412Z,18.75
2019-05-12T00:53:53.146Z,19.00
2019-05-12T00:59:54.351Z,19.67
2019-05-12T01:02:25.395Z,17.82
2019-05-12T01:04:58.125Z,18.62
2019-05-12T01:07:31.810Z,19.98
2019-05-12T01:10:05.034Z,21.37
2019-05-12T01:12:39.234Z,20.00
2019-05-12T01:15:13.092Z,20.10
2019-05-12T01:17:44.987Z,20.95
2019-05-12T01:20:17.819Z,20.27
2019-05-12T01:22:50.572Z,19.37
2019-05-12T01:25:21.874Z,20.75
2019-05-12T01:27:53.068Z,19.98
2019-05-12T01:30:28.399Z,19.07
2019-05-12T01:33:01.044Z,18.37
2019-05-12T01:35:32.458Z,18.87
2019-05-12T01:38:03.250Z,19.57
2019-05-12T01:40:34.412Z,18.95
2019-05-12T01:43:08.242Z,21.30
2019-05-12T01:45:38.137Z,19.00
2019-05-12T01:48:09.660Z,22.62
2019-05-12T01:50:40.920Z,22.80
2019-05-12T01:53:12.233Z,20.72
2019-05-12T01:55:43.388Z,20.35
2019-05-12T01:58:19.026Z,18.07
2019-05-12T02:00:49.336Z,17.73
2019-05-12T02:03:20.818Z,17.82
2019-05-12T02:05:57.813Z,15.93
2019-05-12T02:08:30.834Z,14.93
2019-05-12T02:11:03.654Z,15.20
2019-05-12T02:13:37.999Z,13.78
2019-05-12T02:16:09.183Z,14.03
2019-05-12T02:18:41.966Z,12.20
2019-05-12T02:21:13.341Z,12.18
2019-05-12T02:23:44.594Z,12.03
2019-05-12T02:26:18.722Z,11.70
2019-05-12T02:28:50.303Z,11.90
2019-05-12T02:31:21.995Z,14.07
2019-05-12T02:33:55.035Z,14.13
2019-05-12T02:36:26.063Z,13.58
2019-05-12T02:38:57.324Z,13.28
2019-05-12T02:41:34.573Z,12.53
2019-05-12T02:44:05.566Z,12.07
2019-05-12T02:46:36.981Z,13.70
2019-05-12T02:49:08.050Z,13.53
2019-05-12T02:51:39.825Z,14.18
2019-05-12T02:54:14.376Z,14.43
2019-05-12T02:56:47.072Z,12.95
2019-05-12T02:59:25.008Z,13.08
2019-05-12T03:01:57.411Z,13.28
2019-05-12T03:04:28.692Z,13.53
2019-05-12T03:07:05.481Z,13.83
2019-05-12T03:09:35.256Z,13.62
2019-05-12T03:12:06.624Z,12.73
2019-05-12T03:14:40.813Z,11.75
2019-05-12T03:17:10.666Z,14.83
2019-05-12T03:19:44.739Z,12.47
2019-05-12T03:22:14.471Z,12.88
2019-05-12T03:25:04.949Z,13.32
2019-05-12T03:27:18.744Z,14.50
2019-05-12T03:29:51.353Z,12.85
2019-05-12T03:32:27.453Z,13.18
2019-05-12T03:34:58.543Z,12.70
2019-05-12T03:37:31.367Z,13.45
2019-05-12T03:40:01.191Z,13.28
2019-05-12T03:42:35.230Z,14.05
2019-05-12T03:45:04.835Z,12.37
2019-05-12T03:47:37.585Z,13.28
2019-05-12T03:50:10.358Z,12.88
2019-05-12T03:52:44.964Z,13.78
2019-05-12T03:55:41.973Z,13.55
2019-05-12T03:58:19.847Z,13.53
2019-05-12T04:00:46.872Z,13.95
2019-05-12T04:03:18.188Z,12.58
2019-05-12T04:05:49.235Z,12.15
2019-05-12T04:08:20.332Z,11.80
2019-05-12T04:10:54.556Z,12.45
2019-05-12T04:13:26.442Z,12.35
2019-05-12T04:15:56.732Z,13.20
2019-05-12T04:18:27.518Z,12.93
2019-05-12T04:20:59.237Z,14.18
2019-05-12T04:23:30.471Z,13.48
2019-05-12T04:26:08.476Z,14.50
2019-05-12T04:28:35.076Z,14.28
2019-05-12T04:31:06.530Z,13.98
2019-05-12T04:33:37.639Z,14.73
2019-05-12T04:36:08.728Z,14.70
2019-05-12T04:38:40.114Z,15.20
2019-05-12T04:41:19.090Z,13.88
2019-05-12T04:43:47.393Z,15.20
2019-05-12T04:46:18.407Z,15.20
2019-05-12T04:48:49.563Z,15.65
2019-05-12T04:51:21.659Z,15.20
2019-05-12T04:53:54.852Z,14.50
2019-05-12T04:56:28.640Z,15.50
2019-05-12T04:58:59.273Z,15.98
2019-05-12T05:01:30.340Z,15.55
2019-05-12T05:04:01.266Z,14.95
2019-05-12T05:06:34.222Z,15.38
2019-05-12T05:09:06.153Z,15.15
2019-05-12T05:11:38.872Z,14.95
2019-05-12T05:14:10.485Z,14.87
2019-05-12T05:16:44.891Z,14.83
2019-05-12T05:19:14.221Z,14.28
2019-05-12T05:21:46.031Z,15.63
2019-05-12T05:24:18.444Z,14.40
2019-05-12T05:26:49.571Z,13.72
2019-05-12T05:29:20.898Z,14.40
2019-05-12T05:31:53.431Z,14.95
2019-05-12T05:34:24.888Z,15.23
2019-05-12T05:36:57.270Z,16.10
2019-05-12T05:39:28.141Z,14.13
2019-05-12T05:41:59.447Z,14.43
2019-05-12T05:44:37.945Z,14.95
2019-05-12T05:47:09.001Z,15.13
2019-05-12T05:49:40.315Z,13.85
2019-05-12T05:52:13.663Z,14.45
2019-05-12T05:54:46.862Z,13.35
2019-05-12T05:57:20.047Z,14.45
2019-05-12T05:59:53.644Z,14.55
2019-05-12T06:02:32.092Z,15.40
2019-05-12T06:04:56.408Z,15.13
2019-05-12T06:07:35.141Z,14.65
2019-05-12T06:12:56.740Z,14.53
2019-05-12T06:15:29.684Z,14.93
2019-05-12T06:18:00.409Z,15.13
2019-05-12T06:20:35.455Z,13.88
2019-05-12T06:23:04.670Z,15.72
2019-05-12T06:25:49.461Z,19.25
2019-05-12T06:28:14.569Z,19.27
2019-05-12T06:30:49.844Z,19.10
2019-05-12T06:33:22.728Z,19.82
2019-05-12T06:35:50.680Z,19.07
2019-05-12T06:38:23.632Z,18.48
2019-05-12T06:40:57.347Z,20.08
2019-05-12T06:43:29.112Z,22.27
2019-05-12T06:46:00.636Z,20.12
2019-05-12T06:48:33.363Z,18.62
2019-05-12T06:51:09.002Z,15.38
2019-05-12T06:53:37.010Z,16.07
2019-05-12T06:56:09.498Z,15.38
2019-05-12T06:58:44.240Z,15.30
2019-05-12T07:01:19.334Z,13.60
2019-05-12T07:03:48.319Z,12.63
2019-05-12T07:06:19.979Z,12.75
2019-05-12T07:09:02.529Z,12.47
2019-05-12T07:11:24.228Z,13.72
2019-05-12T07:14:04.548Z,14.05
2019-05-12T07:16:30.297Z,14.63
2019-05-12T07:19:00.907Z,12.80
2019-05-12T07:21:33.510Z,13.68
2019-05-12T07:24:09.093Z,13.15
2019-05-12T07:26:37.547Z,13.05
2019-05-12T07:29:14.840Z,12.85
2019-05-12T07:31:45.861Z,12.60
2019-05-12T07:34:16.939Z,12.78
2019-05-12T07:36:49.184Z,13.18
2019-05-12T07:39:26.943Z,12.82
2019-05-12T07:42:00.280Z,12.93
2019-05-12T07:44:39.778Z,13.13
2019-05-12T07:47:06.888Z,14.00
2019-05-12T07:49:38.729Z,14.55
2019-05-12T07:52:10.171Z,12.88
2019-05-12T07:54:44.254Z,13.45
2019-05-12T07:57:17.293Z,12.90
2019-05-12T07:59:47.447Z,14.35
2019-05-12T08:02:25.490Z,13.30
2019-05-12T08:04:51.220Z,14.35
2019-05-12T08:07:28.321Z,13.70
2019-05-12T08:09:56.675Z,13.08
2019-05-12T08:12:28.893Z,13.38
2019-05-12T08:15:07.791Z,13.93
2019-05-12T08:17:35.729Z,13.60
2019-05-12T08:20:07.761Z,14.30
2019-05-12T08:22:40.849Z,14.35
2019-05-12T08:25:13.443Z,14.60
2019-05-12T08:27:49.023Z,13.10
2019-05-12T08:30:17.317Z,13.98
2019-05-12T08:33:09.861Z,14.03
2019-05-12T08:35:40.397Z,13.62
2019-05-12T08:38:14.281Z,13.22
2019-05-12T08:40:50.980Z,13.22
2019-05-12T08:43:19.266Z,14.28
2019-05-12T08:45:50.760Z,13.60
2019-05-12T08:48:24.809Z,13.78
2019-05-12T08:50:54.802Z,14.45
2019-05-12T08:53:26.229Z,14.53
2019-05-12T08:55:58.560Z,14.35
2019-05-12T08:58:34.174Z,14.47
2019-05-12T09:01:04.422Z,15.68
2019-05-12T09:03:37.472Z,16.15
2019-05-12T09:06:09.334Z,16.37
2019-05-12T09:08:45.121Z,15.53
2019-05-12T09:11:14.075Z,15.98
2019-05-12T09:13:45.559Z,15.90
2019-05-12T09:16:16.594Z,17.10
2019-05-12T09:18:47.688Z,14.85
2019-05-12T09:21:25.297Z,16.48
2019-05-12T09:23:56.001Z,17.67
2019-05-12T09:26:28.442Z,16.70
2019-05-12T09:28:59.008Z,16.35
2019-05-12T09:31:33.367Z,16.52
2019-05-12T09:34:11.530Z,16.75
2019-05-12T09:36:36.455Z,16.93
2019-05-12T09:39:09.305Z,16.67
2019-05-12T09:41:44.006Z,16.85
2019-05-12T09:44:13.366Z,16.93
2019-05-12T09:46:45.748Z,15.90
2019-05-12T09:49:22.080Z,17.27
2019-05-12T09:51:50.557Z,15.85
2019-05-12T09:54:27.843Z,17.12
2019-05-12T09:59:59.772Z,15.63
2019-05-12T10:02:31.120Z,15.75
2019-05-12T10:05:03.954Z,16.17
2019-05-12T10:07:35.020Z,15.75
2019-05-12T10:10:08.285Z,16.27
2019-05-12T10:12:46.203Z,15.00
2019-05-12T10:15:18.502Z,15.65
2019-05-12T10:17:47.146Z,14.95
2019-05-12T10:20:21.443Z,14.93
2019-05-12T10:22:54.151Z,15.45
2019-05-12T10:25:28.375Z,15.30
2019-05-12T10:28:02.963Z,15.63
2019-05-12T10:30:30.253Z,14.50
2019-05-12T10:33:03.789Z,14.28
2019-05-12T10:35:34.961Z,13.85
2019-05-12T10:38:10.528Z,14.20
2019-05-12T10:40:39.196Z,14.65
2019-05-12T10:43:11.012Z,13.65
2019-05-12T10:45:44.045Z,13.55
2019-05-12T10:48:15.610Z,14.38
2019-05-12T10:50:46.780Z,14.03
2019-05-12T10:53:18.276Z,14.70
2019-05-12T10:55:49.358Z,15.85
2019-05-12T10:58:20.760Z,16.12
2019-05-12T11:00:53.673Z,14.43
2019-05-12T11:03:24.606Z,15.48
2019-05-12T11:06:03.123Z,14.10
2019-05-12T11:08:27.804Z,14.25
2019-05-12T11:11:04.040Z,14.38
2019-05-12T11:13:34.148Z,14.35
2019-05-12T11:16:05.365Z,13.68
2019-05-12T11:18:36.239Z,14.70
2019-05-12T11:21:07.374Z,15.18
2019-05-12T11:23:38.579Z,14.68
2019-05-12T11:26:18.098Z,16.00
2019-05-12T11:28:48.589Z,15.85
2019-05-12T11:31:19.565Z,15.18
2019-05-12T11:33:50.708Z,15.83
2019-05-12T11:36:24.106Z,14.20
2019-05-12T11:38:55.455Z,14.13
2019-05-12T11:41:28.415Z,13.98
2019-05-12T11:43:59.041Z,14.50
2019-05-12T11:46:33.418Z,14.63
2019-05-12T11:49:04.408Z,15.48
2019-05-12T11:51:36.791Z,16.10
2019-05-12T11:54:08.862Z,15.35
2019-05-12T11:56:40.290Z,15.10
2019-05-12T11:59:13.822Z,16.50
2019-05-12T12:01:49.384Z,16.70
2019-05-12T12:04:18.012Z,17.25
2019-05-12T12:06:48.913Z,17.67
2019-05-12T12:09:20.236Z,18.90
2019-05-12T12:11:54.674Z,19.82
2019-05-12T12:14:24.425Z,18.82
2019-05-12T12:16:55.624Z,18.95
2019-05-12T12:19:37.741Z,18.70
2019-05-12T12:21:59.444Z,17.75
2019-05-12T12:24:31.619Z,17.77
2019-05-12T12:27:03.887Z,15.85
2019-05-12T12:29:35.285Z,17.87
2019-05-12T12:32:09.934Z,22.50
2019-05-12T12:34:43.895Z,19.25
2019-05-12T12:37:18.994Z,26.87
2019-05-12T12:39:47.047Z,25.08
2019-05-12T12:42:18.208Z,29.23
2019-05-12T12:44:53.519Z,30.52
2019-05-12T12:47:23.706Z,30.25
2019-05-12T12:49:54.075Z,26.68
2019-05-12T12:52:25.379Z,23.70
2019-05-12T12:54:59.278Z,21.62
2019-05-12T12:57:28.982Z,21.23
2019-05-12T13:00:00.195Z,19.40
2019-05-12T13:02:33.715Z,18.32
2019-05-12T13:05:03.672Z,15.80
2019-05-12T13:07:35.004Z,15.55
2019-05-12T13:10:09.477Z,16.80
2019-05-12T13:12:39.604Z,16.85
2019-05-12T13:15:11.245Z,16.75
2019-05-12T13:17:44.552Z,16.82
2019-05-12T13:20:15.530Z,15.43
2019-05-12T13:22:46.886Z,16.65
2019-05-12T13:25:18.673Z,17.12
2019-05-12T13:27:49.663Z,15.72
2019-05-12T13:30:21.566Z,15.88
2019-05-12T13:32:53.577Z,14.90
2019-05-12T13:35:24.463Z,15.23
2019-05-12T13:38:00.450Z,15.60
2019-05-12T13:40:29.812Z,16.30
2019-05-12T13:43:03.735Z,15.88
2019-05-12T13:45:34.531Z,15.58
2019-05-12T13:48:09.520Z,16.32
2019-05-12T13:50:39.061Z,17.55
2019-05-12T13:53:10.491Z,17.02
2019-05-12T13:55:47.520Z,16.65
2019-05-12T13:58:16.299Z,16.37
2019-05-12T14:01:00.443Z,15.72
2019-05-12T14:03:20.233Z,16.17
2019-05-12T14:05:52.322Z,16.67
2019-05-12T14:08:23.825Z,16.25
2019-05-12T14:10:59.350Z,16.32
2019-05-12T14:13:27.510Z,15.60
2019-05-12T14:15:58.388Z,14.50
2019-05-12T14:18:29.391Z,15.98
2019-05-12T14:21:00.613Z,16.25
2019-05-12T14:23:34.170Z,16.37
2019-05-12T14:26:07.788Z,16.67
2019-05-12T14:28:39.457Z,15.83
2019-05-12T14:31:09.125Z,15.95
2019-05-12T14:33:40.485Z,17.12
2019-05-12T14:36:13.635Z,17.07
2019-05-12T14:38:44.566Z,16.35
2019-05-12T14:41:15.607Z,16.05
2019-05-12T14:43:47.876Z,16.85
2019-05-12T14:46:19.208Z,17.23
2019-05-12T14:48:50.776Z,16.45
2019-05-12T14:51:21.970Z,16.52
2019-05-12T14:53:53.574Z,15.90
2019-05-12T14:56:24.713Z,15.65
2019-05-12T14:59:00.501Z,14.75
2019-05-12T15:01:44.235Z,14.63
2019-05-12T15:04:00.550Z,14.93
2019-05-12T15:06:33.968Z,15.60
2019-05-12T15:09:05.997Z,14.73
2019-05-12T15:11:37.320Z,15.50
2019-05-12T15:14:09.419Z,15.75
2019-05-12T15:16:42.021Z,14.90
2019-05-12T15:19:13.981Z,14.83
2019-05-12T15:21:46.545Z,15.03
2019-05-12T15:24:19.015Z,13.75
2019-05-12T15:26:50.404Z,13.93
2019-05-12T15:29:23.462Z,14.90
2019-05-12T15:31:56.818Z,13.62
2019-05-12T15:34:27.239Z,13.50
2019-05-12T15:37:00.149Z,16.87
2019-05-12T15:39:30.670Z,14.70
2019-05-12T15:42:03.541Z,15.20
2019-05-12T15:44:36.764Z,13.35
2019-05-12T15:47:07.221Z,13.83
2019-05-12T15:49:38.382Z,12.65
2019-05-12T15:52:10.631Z,13.40
2019-05-12T15:54:47.180Z,12.73
2019-05-12T15:57:14.274Z,12.68
2019-05-12T15:59:45.522Z,13.38
2019-05-12T16:02:17.740Z,12.18
2019-05-12T16:04:49.022Z,11.93
2019-05-12T16:07:20.608Z,12.65
2019-05-12T16:09:51.666Z,13.15
2019-05-12T16:12:24.386Z,12.10
2019-05-12T16:14:54.791Z,12.58
2019-05-12T16:17:27.347Z,12.82
2019-05-12T16:19:58.397Z,12.23
2019-05-12T16:22:30.686Z,11.95
2019-05-12T16:25:04.143Z,12.43
2019-05-12T16:27:37.202Z,13.48
2019-05-12T16:30:09.104Z,14.30
2019-05-12T16:32:44.593Z,14.47
2019-05-12T16:35:14.803Z,15.45
2019-05-12T16:37:46.999Z,15.43
2019-05-12T16:40:20.699Z,15.68
2019-05-12T16:42:58.891Z,14.63
2019-05-12T16:45:24.282Z,15.50
2019-05-12T16:47:59.216Z,16.02
2019-05-12T16:50:28.217Z,18.05
2019-05-12T16:52:59.285Z,18.25
2019-05-12T16:55:30.315Z,17.75
2019-05-12T16:58:01.371Z,17.85
2019-05-12T17:00:33.831Z,18.45
2019-05-12T17:03:05.244Z,19.20
2019-05-12T17:05:36.708Z,19.73
2019-05-12T17:08:08.913Z,19.25
2019-05-12T17:10:40.063Z,19.40
2019-05-12T17:13:13.729Z,19.95
2019-05-12T17:15:48.567Z,19.73
2019-05-12T17:18:16.385Z,19.40
2019-05-12T17:20:50.838Z,20.05
2019-05-12T17:23:19.762Z,20.50
2019-05-12T17:25:50.930Z,20.23
2019-05-12T17:28:23.672Z,19.70
2019-05-12T17:30:54.647Z,18.00
2019-05-12T17:33:27.619Z,19.87
2019-05-12T17:36:03.061Z,20.10
2019-05-12T17:38:30.433Z,19.27
2019-05-12T17:41:03.534Z,20.23
2019-05-12T17:43:35.297Z,18.92
2019-05-12T17:46:06.708Z,19.60
2019-05-12T17:48:42.824Z,18.55
2019-05-12T17:51:10.559Z,18.52
2019-05-12T17:53:43.245Z,18.25
2019-05-12T17:56:14.076Z,19.80
2019-05-12T17:58:47.450Z,18.15
2019-05-12T18:01:22.249Z,17.90
2019-05-12T18:03:50.830Z,16.82
2019-05-12T18:06:26.846Z,17.55
2019-05-12T18:08:54.790Z,17.15
2019-05-12T18:11:25.905Z,16.65
2019-05-12T18:14:02.321Z,16.87
2019-05-12T18:16:29.168Z,14.98
2019-05-12T18:19:00.122Z,15.85
2019-05-12T18:21:34.060Z,16.85
2019-05-12T18:24:06.776Z,16.00
2019-05-12T18:26:36.166Z,17.23
2019-05-12T18:29:07.457Z,15.45
2019-05-12T18:31:38.785Z,16.27
2019-05-12T18:34:09.669Z,14.80
2019-05-12T18:36:40.730Z,14.95
2019-05-12T18:39:15.096Z,15.72
2019-05-12T18:41:44.589Z,15.23
2019-05-12T18:44:25.416Z,15.38
2019-05-12T18:46:48.407Z,15.38
2019-05-12T18:49:19.673Z,16.40
2019-05-12T18:51:55.176Z,15.63
2019-05-12T18:54:26.170Z,15.48
2019-05-12T18:57:02.556Z,15.00
2019-05-12T18:59:28.456Z,16.17
2019-05-12T19:01:59.616Z,14.85
2019-05-12T19:04:33.943Z,15.05
2019-05-12T19:07:03.810Z,15.23
2019-05-12T19:09:35.089Z,16.50
2019-05-12T19:12:15.785Z,16.15
2019-05-12T19:14:40.453Z,15.28
2019-05-12T19:17:13.987Z,16.57
2019-05-12T19:19:45.959Z,15.95
2019-05-12T19:22:16.210Z,16.17
2019-05-12T19:24:50.109Z,16.70
2019-05-12T19:27:30.583Z,16.50
2019-05-12T19:30:01.476Z,16.70
2019-05-12T19:32:33.603Z,16.55
2019-05-12T19:35:09.355Z,15.65
2019-05-12T19:37:37.639Z,15.60
2019-05-12T19:40:16.612Z,15.48
2019-05-12T19:42:42.703Z,15.53
2019-05-12T19:45:19.571Z,16.23
2019-05-12T19:47:49.144Z,16.55
2019-05-12T19:50:19.735Z,15.08
2019-05-12T19:52:50.887Z,16.23
2019-05-12T19:55:24.015Z,14.80
2019-05-12T19:57:54.996Z,14.33
2019-05-12T20:00:26.175Z,15.75
2019-05-12T20:02:57.393Z,16.60
2019-05-12T20:05:28.685Z,16.05
2019-05-12T20:07:59.706Z,14.63
2019-05-12T20:10:36.124Z,15.40
2019-05-12T20:13:03.924Z,13.90
2019-05-12T20:15:39.089Z,15.03
2019-05-12T20:18:07.647Z,16.07
2019-05-12T20:20:41.691Z,15.75
2019-05-12T20:23:11.176Z,15.32
2019-05-12T20:25:44.282Z,15.20
2019-05-12T20:28:15.038Z,15.25
2019-05-12T20:30:46.156Z,14.35
2019-05-12T20:33:17.067Z,14.87
2019-05-12T20:35:49.353Z,14.10
2019-05-12T20:38:25.386Z,14.07
2019-05-12T20:40:54.095Z,14.83
2019-05-12T20:43:32.270Z,14.15
2019-05-12T20:45:57.766Z,15.40
2019-05-12T20:48:31.066Z,14.83
2019-05-12T20:51:03.492Z,15.40
2019-05-12T20:53:36.570Z,14.90
2019-05-12T20:56:06.531Z,14.03
2019-05-12T20:58:41.034Z,15.72
2019-05-12T21:01:10.269Z,14.30
2019-05-12T21:03:46.384Z,15.28
2019-05-12T21:06:14.901Z,16.35
2019-05-12T21:08:53.306Z,15.18
2019-05-12T21:11:18.670Z,16.42
2019-05-12T21:13:49.726Z,16.15
2019-05-12T21:16:30.861Z,17.30
2019-05-12T21:19:02.216Z,16.95
2019-05-12T21:21:33.147Z,17.48
2019-05-12T21:23:59.545Z,17.42
2019-05-12T21:26:34.683Z,18.50
2019-05-12T21:29:04.556Z,18.85
2019-05-12T21:31:35.135Z,19.35
2019-05-12T21:34:06.927Z,17.82
2019-05-12T21:36:37.730Z,19.65
2019-05-12T21:39:10.620Z,19.62
2019-05-12T21:41:50.544Z,19.73
2019-05-12T21:44:14.318Z,20.57
2019-05-12T21:46:57.419Z,19.55
2019-05-12T21:49:19.333Z,20.08
2019-05-12T21:51:56.031Z,18.90
2019-05-12T21:54:24.167Z,18.62
2019-05-12T21:56:55.655Z,20.48
2019-05-12T21:59:29.121Z,20.37
2019-05-12T22:01:59.923Z,21.12
2019-05-12T22:04:34.226Z,20.95
2019-05-12T22:07:03.882Z,20.77
2019-05-12T22:09:41.792Z,20.15
2019-05-12T22:12:08.473Z,20.00
2019-05-12T22:14:40.956Z,22.07
2019-05-12T22:17:13.598Z,21.68
2019-05-12T22:19:44.427Z,20.32
2019-05-12T22:22:19.546Z,20.30
2019-05-12T22:24:48.276Z,20.90
2019-05-12T22:27:25.820Z,20.85
2019-05-12T22:29:51.531Z,21.50
2019-05-12T22:32:25.451Z,20.77
2019-05-12T22:34:55.368Z,19.65
2019-05-12T22:37:29.362Z,21.10
2019-05-12T22:39:59.038Z,21.42
2019-05-12T22:42:30.319Z,19.67
2019-05-12T22:45:02.018Z,20.88
2019-05-12T22:47:33.981Z,20.40
2019-05-12T22:50:05.278Z,20.72
2019-05-12T22:52:38.989Z,20.72
2019-05-12T22:55:10.261Z,20.17
2019-05-12T22:57:43.486Z,19.80
2019-05-12T23:00:19.491Z,20.57
2019-05-12T23:02:50.181Z,20.70
2019-05-12T23:05:21.536Z,21.80
2019-05-12T23:07:54.448Z,19.37
2019-05-12T23:10:25.909Z,20.82
2019-05-12T23:13:01.583Z,20.92
2019-05-12T23:15:29.143Z,21.07
2019-05-12T23:18:00.509Z,21.42
2019-05-12T23:20:33.332Z,20.60
2019-05-12T23:23:04.273Z,20.25
2019-05-12T23:25:39.439Z,20.12
2019-05-12T23:28:10.786Z,20.35
2019-05-12T23:30:43.831Z,20.48
2019-05-12T23:33:14.794Z,20.25
2019-05-12T23:35:46.233Z,20.02
2019-05-12T23:38:20.899Z,20.62
2019-05-12T23:40:50.695Z,19.67
2019-05-12T23:43:23.567Z,21.17
2019-05-12T23:45:54.311Z,21.33
2019-05-12T23:48:25.107Z,18.87
2019-05-12T23:50:56.267Z,20.62
2019-05-12T23:53:27.227Z,20.55
2019-05-12T23:55:58.505Z,18.87
2019-05-12T23:58:29.796Z,19.30
